Time;durP1;ratioP1;P1;durP2;ratioP2;P2;SDS_P1;SDS_P2;PMS_P1;PMS_P2;Temp;Humidity;BMP_temperature;BMP_pressure;BME280_temperature;BME280_humidity;BME280_pressure;Samples;Min_cycle;Max_cycle;Signal;HPM_P1;HPM_P2
2023/05/05 00:01:10;;;;;;;5.50;2.97;;;15.60;99.90;;;;;;5035088;28;20018;-70
2023/05/05 00:03:36;;;;;;;8.02;3.20;;;15.60;99.90;;;;;;5038553;28;20037;-70
2023/05/05 00:06:03;;;;;;;7.22;3.78;;;15.50;99.90;;;;;;5034119;28;20025;-70
2023/05/05 00:08:28;;;;;;;7.00;3.30;;;15.50;99.90;;;;;;5037201;28;20026;-70
2023/05/05 00:10:55;;;;;;;4.90;3.40;;;15.50;99.90;;;;;;5034405;28;20104;-70
2023/05/05 00:13:21;;;;;;;7.35;3.90;;;15.50;99.90;;;;;;5038711;28;20064;-70
2023/05/05 00:15:48;;;;;;;10.23;3.70;;;15.50;99.90;;;;;;5037163;28;20033;-70
2023/05/05 00:18:16;;;;;;;6.10;3.75;;;15.50;99.90;;;;;;5033820;28;20553;-70
2023/05/05 00:20:42;;;;;;;7.95;3.72;;;15.50;99.90;;;;;;5037270;28;20086;-70
2023/05/05 00:23:08;;;;;;;5.32;3.42;;;15.40;99.90;;;;;;5035389;28;20057;-70
2023/05/05 00:25:34;;;;;;;6.43;3.33;;;15.40;99.90;;;;;;5032689;28;20033;-70
2023/05/05 00:28:00;;;;;;;8.27;3.65;;;15.30;99.90;;;;;;5035339;28;20409;-70
2023/05/05 00:30:26;;;;;;;6.28;3.92;;;15.30;99.90;;;;;;5036615;28;20036;-71
2023/05/05 00:32:53;;;;;;;6.80;2.92;;;15.30;99.90;;;;;;5038989;28;20025;-70
2023/05/05 00:35:19;;;;;;;5.03;3.25;;;15.30;99.90;;;;;;5029993;28;20038;-70
2023/05/05 00:37:45;;;;;;;8.50;4.53;;;15.30;99.90;;;;;;5037269;28;20036;-70
2023/05/05 00:40:12;;;;;;;7.28;3.25;;;15.30;99.90;;;;;;5035350;28;20022;-70
2023/05/05 00:42:46;;;;;;;12.77;3.55;;;15.20;99.90;;;;;;5035893;28;20025;-70
2023/05/05 00:45:15;;;;;;;7.15;3.83;;;15.20;99.90;;;;;;5037156;28;20402;-70
2023/05/05 00:47:45;;;;;;;5.73;3.43;;;15.20;99.90;;;;;;5025599;28;20039;-70
2023/05/05 00:50:20;;;;;;;3.95;2.92;;;15.20;99.90;;;;;;5033445;28;20490;-70
2023/05/05 00:52:45;;;;;;;9.60;4.30;;;15.20;99.90;;;;;;5034869;28;20033;-70
2023/05/05 00:55:11;;;;;;;8.93;4.00;;;15.20;99.90;;;;;;5037836;28;20083;-71
2023/05/05 00:57:37;;;;;;;18.52;4.55;;;15.20;99.90;;;;;;5036640;28;20029;-71
2023/05/05 01:00:04;;;;;;;7.95;3.30;;;15.10;99.90;;;;;;5032288;28;20026;-70
2023/05/05 01:02:30;;;;;;;9.50;3.78;;;15.10;99.90;;;;;;5026821;28;20049;-70
2023/05/05 01:04:57;;;;;;;7.47;3.40;;;15.10;99.90;;;;;;5032850;28;20095;-70
2023/05/05 01:07:37;;;;;;;6.85;3.45;;;15.10;99.90;;;;;;5025532;28;20029;-70
2023/05/05 01:10:12;;;;;;;7.03;3.17;;;15.10;99.90;;;;;;5033061;28;20083;-70
2023/05/05 01:12:38;;;;;;;5.82;3.63;;;15.00;99.90;;;;;;5037087;28;20036;-70
2023/05/05 01:15:29;;;;;;;8.35;3.67;;;15.00;99.90;;;;;;5034963;28;20033;-71
2023/05/05 01:18:21;;;;;;;9.60;4.00;;;15.00;99.90;;;;;;5035762;28;20497;-70
2023/05/05 01:21:12;;;;;;;8.07;3.88;;;15.00;99.90;;;;;;5030930;28;20037;-70
2023/05/05 01:23:55;;;;;;;9.43;3.58;;;14.90;99.90;;;;;;5025473;28;20036;-70
2023/05/05 01:26:42;;;;;;;9.85;4.22;;;14.90;99.90;;;;;;5035118;28;20028;-70
2023/05/05 01:29:43;;;;;;;5.72;3.10;;;14.90;99.90;;;;;;5036202;28;20096;-71
2023/05/05 01:32:14;;;;;;;7.40;3.30;;;14.80;99.90;;;;;;5035858;28;20032;-70
2023/05/05 01:34:47;;;;;;;6.25;3.65;;;14.80;99.90;;;;;;5034858;28;20040;-70
2023/05/05 01:37:23;;;;;;;6.97;3.45;;;14.80;99.90;;;;;;5034414;28;20029;-70
2023/05/05 01:39:54;;;;;;;12.13;4.07;;;14.80;99.90;;;;;;5034426;28;20037;-70
2023/05/05 01:42:22;;;;;;;7.15;3.50;;;14.80;99.90;;;;;;5028936;28;20097;-70
2023/05/05 01:44:51;;;;;;;9.98;3.20;;;14.70;99.90;;;;;;5031576;28;20022;-71
2023/05/05 01:47:20;;;;;;;6.80;3.70;;;14.70;99.90;;;;;;5037558;28;20108;-70
2023/05/05 01:49:46;;;;;;;7.60;3.67;;;14.70;99.90;;;;;;5029609;28;20026;-70
2023/05/05 01:52:14;;;;;;;7.03;3.63;;;14.70;99.90;;;;;;5037413;28;20025;-70
2023/05/05 01:54:42;;;;;;;7.78;3.63;;;14.60;99.90;;;;;;5033505;28;20394;-70
2023/05/05 01:57:10;;;;;;;3.63;3.00;;;14.70;99.90;;;;;;5036067;28;20029;-70
2023/05/05 01:59:38;;;;;;;6.35;3.20;;;14.70;99.90;;;;;;5032444;28;20018;-70
2023/05/05 02:02:07;;;;;;;7.78;4.03;;;14.70;99.90;;;;;;5051196;28;20061;-71
2023/05/05 02:04:36;;;;;;;10.77;3.58;;;14.70;99.90;;;;;;5031767;28;20072;-70
2023/05/05 02:07:03;;;;;;;6.80;3.13;;;14.70;99.90;;;;;;5035368;28;20084;-71
2023/05/05 02:09:31;;;;;;;8.00;4.00;;;14.70;99.90;;;;;;5034648;28;20398;-71
2023/05/05 02:11:58;;;;;;;7.00;3.75;;;14.70;99.90;;;;;;5035230;28;20033;-70
2023/05/05 02:14:27;;;;;;;11.85;4.57;;;14.70;99.90;;;;;;5033083;28;20068;-70
2023/05/05 02:16:55;;;;;;;9.13;3.75;;;14.70;99.90;;;;;;5033539;28;20033;-70
2023/05/05 02:19:27;;;;;;;4.40;2.92;;;14.70;99.90;;;;;;5033910;28;20029;-70
2023/05/05 02:21:53;;;;;;;11.13;4.15;;;14.70;99.90;;;;;;5035143;28;20047;-70
2023/05/05 02:24:18;;;;;;;7.50;3.85;;;14.70;99.90;;;;;;5033810;28;20033;-70
2023/05/05 02:26:46;;;;;;;7.85;3.30;;;14.70;99.90;;;;;;5033138;28;20105;-71
2023/05/05 02:29:23;;;;;;;8.05;3.25;;;14.60;99.90;;;;;;5027249;28;20076;-70
2023/05/05 02:31:51;;;;;;;7.32;3.17;;;14.60;99.90;;;;;;5026022;28;20021;-70
2023/05/05 02:34:22;;;;;;;6.38;3.60;;;14.60;99.90;;;;;;5032609;28;20022;-70
2023/05/05 02:36:52;;;;;;;10.25;3.80;;;14.60;99.90;;;;;;5033650;28;20025;-70
2023/05/05 02:39:31;;;;;;;5.85;3.88;;;14.60;99.90;;;;;;5034561;28;20034;-70
2023/05/05 02:42:01;;;;;;;12.55;4.28;;;14.50;99.90;;;;;;5034065;28;20028;-70
2023/05/05 02:44:30;;;;;;;7.75;3.35;;;14.50;99.90;;;;;;5031958;28;20071;-70
2023/05/05 02:46:57;;;;;;;14.70;3.90;;;14.50;99.90;;;;;;5022350;28;20520;-70
2023/05/05 02:49:23;;;;;;;7.47;3.58;;;14.50;99.90;;;;;;5036715;28;20420;-70
2023/05/05 02:51:49;;;;;;;8.90;3.65;;;14.50;99.90;;;;;;5035585;28;20091;-70
2023/05/05 02:54:15;;;;;;;5.28;3.65;;;14.50;99.90;;;;;;5036798;28;20108;-70
2023/05/05 02:56:48;;;;;;;5.60;3.60;;;14.40;99.90;;;;;;5032478;28;20108;-70
2023/05/05 02:59:29;;;;;;;8.48;4.38;;;14.40;99.90;;;;;;5032825;28;20029;-70
2023/05/05 03:02:13;;;;;;;8.43;4.63;;;14.40;99.90;;;;;;5032548;28;20022;-71
2023/05/05 03:04:45;;;;;;;6.22;3.58;;;14.40;99.90;;;;;;5036520;28;20034;-70
2023/05/05 03:07:19;;;;;;;6.50;3.17;;;14.30;99.90;;;;;;5023553;28;20053;-70
2023/05/05 03:10:09;;;;;;;6.65;3.58;;;14.30;99.90;;;;;;5034742;28;20033;-70
2023/05/05 03:12:48;;;;;;;10.50;3.75;;;14.30;99.90;;;;;;5024102;28;20041;-70
2023/05/05 03:15:14;;;;;;;6.03;3.90;;;14.20;99.90;;;;;;5034446;28;20025;-70
2023/05/05 03:17:41;;;;;;;6.47;3.75;;;14.20;99.90;;;;;;5025237;28;20038;-70
2023/05/05 03:20:09;;;;;;;5.75;3.42;;;14.20;99.90;;;;;;5035385;28;20043;-70
2023/05/05 03:22:36;;;;;;;8.35;3.85;;;14.10;99.90;;;;;;5030698;28;20036;-70
2023/05/05 03:25:02;;;;;;;5.60;3.80;;;14.10;99.90;;;;;;5032368;28;20037;-70
2023/05/05 03:27:28;;;;;;;5.65;3.15;;;14.10;99.90;;;;;;5028445;28;20502;-70
2023/05/05 03:29:54;;;;;;;5.57;3.88;;;14.10;99.90;;;;;;5036455;28;20029;-70
2023/05/05 03:32:20;;;;;;;12.80;4.22;;;14.10;99.90;;;;;;5035402;28;20030;-70
2023/05/05 03:34:45;;;;;;;5.20;3.33;;;14.00;99.90;;;;;;5036337;28;20026;-70
2023/05/05 03:37:11;;;;;;;8.98;3.70;;;14.00;99.90;;;;;;5031916;28;20021;-70
2023/05/05 03:39:37;;;;;;;7.13;3.83;;;14.00;99.90;;;;;;5034924;28;20045;-70
2023/05/05 03:42:02;;;;;;;6.32;3.67;;;14.00;99.90;;;;;;5037791;28;20485;-70
2023/05/05 03:44:28;;;;;;;5.03;3.35;;;13.90;99.90;;;;;;5039088;28;20508;-70
2023/05/05 03:46:53;;;;;;;4.15;3.45;;;13.90;99.90;;;;;;5036539;28;20025;-71
2023/05/05 03:49:19;;;;;;;6.18;3.58;;;14.00;99.90;;;;;;5036794;28;20413;-70
2023/05/05 03:51:46;;;;;;;9.77;4.63;;;13.90;99.90;;;;;;5039303;28;20021;-71
2023/05/05 03:54:12;;;;;;;4.53;3.75;;;13.90;99.90;;;;;;5038354;28;20025;-71
2023/05/05 03:56:38;;;;;;;10.38;4.93;;;13.90;99.90;;;;;;5038177;28;20024;-71
2023/05/05 03:59:04;;;;;;;4.32;3.25;;;13.90;99.90;;;;;;5037171;28;20482;-71
2023/05/05 04:01:30;;;;;;;7.03;3.95;;;13.90;99.90;;;;;;5037969;28;20022;-71
2023/05/05 04:03:56;;;;;;;6.22;2.75;;;13.90;99.90;;;;;;5031190;28;20100;-71
2023/05/05 04:06:22;;;;;;;5.05;2.92;;;13.90;99.90;;;;;;5036643;28;20021;-71
2023/05/05 04:08:47;;;;;;;6.07;3.42;;;13.90;99.90;;;;;;5036178;28;20028;-70
2023/05/05 04:11:13;;;;;;;7.45;3.58;;;14.00;99.90;;;;;;5038869;28;20025;-70
2023/05/05 04:13:39;;;;;;;8.85;3.83;;;13.90;99.90;;;;;;5039430;28;20478;-71
2023/05/05 04:16:05;;;;;;;9.32;4.50;;;13.90;99.90;;;;;;5029460;28;20042;-70
2023/05/05 04:18:30;;;;;;;10.18;4.18;;;13.90;99.90;;;;;;5035498;28;20091;-71
2023/05/05 04:20:56;;;;;;;6.10;4.20;;;13.90;99.90;;;;;;5037922;28;20045;-70
2023/05/05 04:23:22;;;;;;;5.00;3.92;;;13.90;99.90;;;;;;5032299;28;20034;-70
2023/05/05 04:25:47;;;;;;;6.28;3.45;;;13.80;99.90;;;;;;5034013;28;20501;-70
2023/05/05 04:28:13;;;;;;;7.10;3.53;;;13.80;99.90;;;;;;5036428;28;20482;-70
2023/05/05 04:30:39;;;;;;;4.45;3.67;;;13.80;99.90;;;;;;5038096;28;20117;-70
2023/05/05 04:33:05;;;;;;;4.38;3.22;;;13.80;99.90;;;;;;5033650;28;20065;-71
2023/05/05 04:35:31;;;;;;;5.70;4.43;;;13.70;99.90;;;;;;5039260;28;20033;-70
2023/05/05 04:37:56;;;;;;;7.80;3.97;;;13.70;99.90;;;;;;5038163;28;20026;-70
2023/05/05 04:40:22;;;;;;;8.35;3.58;;;13.70;99.90;;;;;;5033963;28;20033;-70
2023/05/05 04:42:47;;;;;;;5.28;3.38;;;13.70;99.90;;;;;;5035887;28;20067;-70
2023/05/05 04:45:13;;;;;;;4.05;3.40;;;13.70;99.90;;;;;;5032389;28;20116;-70
2023/05/05 04:47:39;;;;;;;7.85;3.70;;;13.60;99.90;;;;;;5025612;28;20037;-70
2023/05/05 04:50:06;;;;;;;6.80;3.67;;;13.60;99.90;;;;;;5038232;28;20028;-70
2023/05/05 04:52:32;;;;;;;7.57;4.03;;;13.60;99.90;;;;;;5036486;28;20549;-71
2023/05/05 04:54:58;;;;;;;11.23;3.85;;;13.60;99.90;;;;;;5031332;28;20561;-71
2023/05/05 04:57:24;;;;;;;5.63;3.60;;;13.50;99.90;;;;;;5037756;28;20025;-72
2023/05/05 04:59:49;;;;;;;9.80;4.50;;;13.50;99.90;;;;;;5030359;28;20024;-71
2023/05/05 05:02:15;;;;;;;5.10;3.38;;;13.50;99.90;;;;;;5038945;28;20551;-69
2023/05/05 05:04:41;;;;;;;5.18;3.97;;;13.50;99.90;;;;;;5036981;28;20024;-70
2023/05/05 05:07:06;;;;;;;6.38;4.32;;;13.50;99.90;;;;;;5034660;28;20083;-71
2023/05/05 05:09:32;;;;;;;4.07;3.67;;;13.50;99.90;;;;;;5035834;28;20087;-71
2023/05/05 05:11:59;;;;;;;4.93;3.85;;;13.50;99.90;;;;;;5037455;28;20034;-70
2023/05/05 05:14:26;;;;;;;5.57;3.53;;;13.50;99.90;;;;;;5030723;28;20030;-70
2023/05/05 05:16:52;;;;;;;7.57;4.20;;;13.50;99.90;;;;;;5036353;28;20030;-70
2023/05/05 05:19:18;;;;;;;7.30;4.53;;;13.50;99.90;;;;;;5033280;28;20033;-70
2023/05/05 05:21:43;;;;;;;4.28;3.05;;;13.50;99.90;;;;;;5035739;28;20074;-70
2023/05/05 05:24:10;;;;;;;8.35;4.07;;;13.40;99.90;;;;;;5033567;28;20036;-70
2023/05/05 05:26:36;;;;;;;5.75;3.67;;;13.40;99.90;;;;;;5030157;28;20045;-70
2023/05/05 05:29:02;;;;;;;6.75;3.30;;;13.40;99.90;;;;;;5036419;28;20025;-70
2023/05/05 05:31:28;;;;;;;7.88;3.63;;;13.40;99.90;;;;;;5034153;28;20147;-70
2023/05/05 05:33:55;;;;;;;4.80;3.40;;;13.40;99.90;;;;;;5037853;28;20030;-70
2023/05/05 05:36:20;;;;;;;4.35;3.45;;;13.40;99.90;;;;;;5034073;28;20040;-70
2023/05/05 05:38:46;;;;;;;6.63;3.20;;;13.30;99.90;;;;;;5035264;28;20037;-70
2023/05/05 05:41:12;;;;;;;7.32;3.58;;;13.40;99.90;;;;;;5027954;28;20105;-70
2023/05/05 05:43:37;;;;;;;5.57;3.30;;;13.40;99.90;;;;;;5036337;28;20064;-70
2023/05/05 05:46:03;;;;;;;5.72;3.40;;;13.50;99.90;;;;;;5033940;28;20026;-70
2023/05/05 05:48:29;;;;;;;5.07;3.80;;;13.50;99.90;;;;;;5034625;28;20022;-70
2023/05/05 05:50:55;;;;;;;10.25;3.50;;;13.70;99.90;;;;;;5036081;28;20071;-70
2023/05/05 05:53:21;;;;;;;6.50;3.10;;;13.80;99.90;;;;;;5036474;28;20025;-70
2023/05/05 05:55:47;;;;;;;4.05;3.38;;;14.00;99.90;;;;;;5029765;28;20030;-69
2023/05/05 05:58:12;;;;;;;6.28;3.63;;;14.20;99.90;;;;;;5037322;28;20029;-70
2023/05/05 06:00:38;;;;;;;5.32;3.10;;;14.50;99.90;;;;;;5028842;28;20033;-69
2023/05/05 06:03:04;;;;;;;11.15;3.80;;;14.70;99.90;;;;;;5017907;28;20026;-69
2023/05/05 06:05:30;;;;;;;6.25;3.40;;;14.80;99.90;;;;;;5026885;28;20033;-70
2023/05/05 06:07:56;;;;;;;4.35;2.95;;;15.10;99.90;;;;;;5026590;28;20485;-70
2023/05/05 06:10:22;;;;;;;7.13;3.55;;;15.20;99.90;;;;;;5029653;28;20055;-69
2023/05/05 06:12:47;;;;;;;5.32;3.30;;;15.40;99.90;;;;;;5036588;28;20022;-70
2023/05/05 06:15:13;;;;;;;4.47;2.85;;;15.50;99.90;;;;;;5028273;28;20034;-71
2023/05/05 06:17:39;;;;;;;11.70;3.00;;;15.70;99.90;;;;;;5035870;28;20041;-70
2023/05/05 06:20:05;;;;;;;2.78;2.20;;;15.80;99.90;;;;;;5031163;28;20026;-70
2023/05/05 06:22:31;;;;;;;5.70;3.00;;;15.90;99.90;;;;;;5036001;28;20037;-70
2023/05/05 06:24:56;;;;;;;7.93;3.58;;;16.00;99.90;;;;;;5029165;28;20025;-70
2023/05/05 06:27:22;;;;;;;4.82;2.67;;;16.00;99.90;;;;;;5030215;28;20120;-70
2023/05/05 06:29:48;;;;;;;3.63;2.40;;;16.10;99.90;;;;;;5033902;28;20045;-71
2023/05/05 06:32:14;;;;;;;6.32;2.65;;;16.20;99.90;;;;;;5032343;28;20029;-70
2023/05/05 06:34:40;;;;;;;6.40;2.35;;;16.30;99.90;;;;;;5036696;28;20028;-69
2023/05/05 06:37:05;;;;;;;4.40;2.40;;;16.30;99.90;;;;;;5035161;28;20105;-69
2023/05/05 06:39:31;;;;;;;4.25;2.70;;;16.30;99.90;;;;;;5037096;28;20018;-70
2023/05/05 06:41:57;;;;;;;4.28;2.92;;;16.40;99.90;;;;;;5029263;28;20497;-69
2023/05/05 06:44:22;;;;;;;4.68;2.83;;;16.50;99.90;;;;;;5032764;28;20037;-69
2023/05/05 06:46:50;;;;;;;5.53;2.40;;;16.60;99.90;;;;;;5028281;28;20385;-70
2023/05/05 06:49:15;;;;;;;5.68;2.28;;;16.70;99.90;;;;;;5032429;28;20064;-69
2023/05/05 06:51:41;;;;;;;4.70;2.72;;;16.80;99.90;;;;;;5031563;28;20033;-70
2023/05/05 06:54:06;;;;;;;4.38;2.38;;;17.00;99.90;;;;;;5030880;28;20030;-70
2023/05/05 06:56:32;;;;;;;3.85;2.50;;;17.10;99.90;;;;;;5030378;28;20022;-70
2023/05/05 06:58:58;;;;;;;7.97;2.35;;;17.30;99.90;;;;;;5025461;28;20486;-70
2023/05/05 07:01:23;;;;;;;6.30;2.67;;;17.30;99.90;;;;;;5022888;28;20056;-70
2023/05/05 07:03:49;;;;;;;5.95;2.30;;;17.40;99.90;;;;;;5016223;28;20076;-70
2023/05/05 07:06:15;;;;;;;6.28;2.33;;;17.50;99.90;;;;;;5031545;28;20031;-70
2023/05/05 07:08:41;;;;;;;3.13;2.10;;;17.50;99.90;;;;;;5033601;28;20394;-70
2023/05/05 07:11:07;;;;;;;3.95;2.20;;;17.60;99.90;;;;;;5032569;28;20021;-70
2023/05/05 07:13:32;;;;;;;3.30;2.13;;;17.60;99.90;;;;;;5036517;28;20486;-70
2023/05/05 07:15:58;;;;;;;5.07;2.60;;;17.60;99.90;;;;;;5031926;28;20060;-71
2023/05/05 07:18:24;;;;;;;3.95;2.33;;;17.60;99.90;;;;;;5036503;28;20551;-70
2023/05/05 07:20:50;;;;;;;3.47;2.10;;;17.70;99.90;;;;;;5020230;28;20026;-70
2023/05/05 07:23:16;;;;;;;3.55;2.25;;;17.70;99.90;;;;;;5028873;28;20385;-69
2023/05/05 07:25:41;;;;;;;4.38;2.40;;;17.60;99.90;;;;;;5035354;28;20113;-70
2023/05/05 07:28:07;;;;;;;3.83;2.20;;;17.60;99.90;;;;;;5038035;28;20100;-69
2023/05/05 07:30:33;;;;;;;3.58;2.50;;;17.70;99.90;;;;;;5033562;28;20080;-69
2023/05/05 07:32:58;;;;;;;6.18;2.30;;;17.70;99.90;;;;;;5032285;28;20026;-70
2023/05/05 07:35:24;;;;;;;5.50;2.65;;;17.70;99.90;;;;;;5038302;28;20030;-69
2023/05/05 07:37:50;;;;;;;4.22;2.90;;;17.70;99.90;;;;;;5030236;28;20018;-70
2023/05/05 07:40:15;;;;;;;4.55;2.40;;;17.80;99.90;;;;;;5038714;28;20036;-70
2023/05/05 07:42:41;;;;;;;3.50;1.90;;;18.00;99.90;;;;;;5034018;28;20045;-70
2023/05/05 07:45:07;;;;;;;6.30;2.50;;;18.10;99.90;;;;;;5038444;28;20029;-69
2023/05/05 07:47:33;;;;;;;5.32;2.40;;;18.20;99.90;;;;;;5037186;28;20022;-69
2023/05/05 07:50:00;;;;;;;12.65;2.53;;;18.20;99.90;;;;;;5041644;28;20104;-70
2023/05/05 07:52:26;;;;;;;7.35;2.40;;;18.40;99.90;;;;;;5039314;28;20033;-69
2023/05/05 07:54:51;;;;;;;4.38;2.65;;;18.30;99.90;;;;;;5037012;28;20044;-69
2023/05/05 07:57:17;;;;;;;4.60;2.53;;;18.40;99.90;;;;;;5038375;28;20026;-69
2023/05/05 07:59:43;;;;;;;5.30;2.45;;;18.50;99.90;;;;;;5035716;28;20048;-70
2023/05/05 08:02:11;;;;;;;3.83;2.40;;;18.50;99.90;;;;;;5031732;28;20022;-69
2023/05/05 08:04:40;;;;;;;8.75;2.40;;;18.60;99.90;;;;;;5035730;28;20112;-69
2023/05/05 08:07:06;;;;;;;8.50;2.88;;;18.70;99.90;;;;;;5036842;28;20571;-69
2023/05/05 08:09:33;;;;;;;6.45;2.55;;;18.90;99.90;;;;;;5038164;28;20026;-69
2023/05/05 08:12:00;;;;;;;4.15;2.08;;;18.90;99.90;;;;;;5035698;28;20025;-69
2023/05/05 08:14:25;;;;;;;5.57;2.65;;;19.00;99.90;;;;;;5036574;28;20029;-68
2023/05/05 08:16:51;;;;;;;5.15;2.47;;;19.00;99.90;;;;;;5036187;28;20042;-69
2023/05/05 08:19:18;;;;;;;4.32;2.45;;;19.10;99.90;;;;;;5037990;28;20095;-68
2023/05/05 08:21:43;;;;;;;9.07;2.50;;;19.00;99.90;;;;;;5037021;28;20022;-69
2023/05/05 08:24:09;;;;;;;3.28;2.38;;;19.20;99.90;;;;;;5038351;28;20445;-69
2023/05/05 08:26:35;;;;;;;5.13;3.25;;;19.20;99.90;;;;;;5035760;28;20097;-69
2023/05/05 08:29:01;;;;;;;5.25;2.72;;;19.30;99.90;;;;;;5037251;28;20397;-69
2023/05/05 08:31:34;;;;;;;6.90;3.00;;;19.40;99.90;;;;;;5035440;28;20483;-69
2023/05/05 08:34:00;;;;;;;10.40;3.10;;;19.40;99.90;;;;;;5037520;28;20030;-69
2023/05/05 08:36:26;;;;;;;3.70;2.92;;;19.30;99.90;;;;;;5036345;28;20028;-69
2023/05/05 08:38:51;;;;;;;5.47;2.75;;;19.20;99.90;;;;;;5037385;28;20079;-68
2023/05/05 08:41:18;;;;;;;4.00;2.67;;;19.30;99.90;;;;;;5033924;28;20031;-68
2023/05/05 08:43:46;;;;;;;4.55;2.67;;;19.40;99.90;;;;;;5033195;28;20095;-68
2023/05/05 08:46:12;;;;;;;6.55;3.33;;;19.50;99.90;;;;;;5036185;28;20032;-68
2023/05/05 08:48:42;;;;;;;6.28;2.92;;;19.60;99.90;;;;;;5036994;28;20537;-69
2023/05/05 08:51:12;;;;;;;3.83;2.67;;;19.70;99.90;;;;;;5036748;28;20045;-69
2023/05/05 08:53:53;;;;;;;9.73;3.72;;;19.90;99.90;;;;;;5037062;28;20105;-69
2023/05/05 08:56:22;;;;;;;3.08;2.35;;;20.00;99.90;;;;;;5034174;28;20440;-69
2023/05/05 08:58:50;;;;;;;4.78;2.65;;;20.30;99.90;;;;;;5037134;28;20474;-68
2023/05/05 09:01:16;;;;;;;4.80;2.83;;;20.40;99.90;;;;;;5035653;28;20052;-69
2023/05/05 09:03:45;;;;;;;4.82;2.75;;;20.40;99.90;;;;;;5033446;28;20383;-69
2023/05/05 09:06:11;;;;;;;5.03;2.80;;;20.40;99.90;;;;;;5034257;28;20808;-68
2023/05/05 09:08:38;;;;;;;4.35;2.30;;;20.40;99.90;;;;;;5036817;28;20065;-68
2023/05/05 09:11:04;;;;;;;8.20;2.75;;;20.30;99.90;;;;;;5031047;28;20040;-69
2023/05/05 09:13:30;;;;;;;5.53;2.65;;;20.30;99.90;;;;;;5034631;28;20056;-68
2023/05/05 09:15:57;;;;;;;5.05;3.20;;;20.50;99.90;;;;;;5036657;28;20026;-69
2023/05/05 09:18:22;;;;;;;4.50;2.50;;;20.50;99.90;;;;;;5036926;28;20458;-69
2023/05/05 09:20:48;;;;;;;5.82;2.72;;;20.40;99.90;;;;;;5034314;28;20115;-69
2023/05/05 09:23:19;;;;;;;4.13;2.80;;;20.40;99.90;;;;;;5036757;28;20044;-69
2023/05/05 09:26:03;;;;;;;4.55;3.10;;;20.50;99.90;;;;;;5037015;28;20033;-69
2023/05/05 09:28:28;;;;;;;6.78;3.03;;;20.60;99.90;;;;;;5036742;28;20049;-68
2023/05/05 09:30:54;;;;;;;4.18;2.70;;;20.70;99.90;;;;;;5033249;28;20030;-68
2023/05/05 09:33:30;;;;;;;3.85;2.40;;;20.60;99.90;;;;;;5029393;28;20026;-67
2023/05/05 09:35:56;;;;;;;4.15;2.55;;;20.70;99.90;;;;;;5032740;28;20034;-68
2023/05/05 09:38:23;;;;;;;6.10;2.78;;;20.70;99.90;;;;;;5034039;28;20166;-68
2023/05/05 09:40:50;;;;;;;4.55;2.83;;;20.50;99.90;;;;;;5033774;28;20049;-68
2023/05/05 09:43:17;;;;;;;6.30;3.13;;;20.60;99.90;;;;;;5032977;28;20018;-68
2023/05/05 09:45:43;;;;;;;8.15;2.92;;;20.70;99.90;;;;;;5032829;28;20060;-68
2023/05/05 09:48:29;;;;;;;4.03;2.78;;;20.80;99.90;;;;;;5034789;28;20033;-69
2023/05/05 09:50:56;;;;;;;5.78;3.17;;;20.80;99.90;;;;;;5028643;28;20107;-68
2023/05/05 09:53:26;;;;;;;7.35;2.88;;;21.00;99.90;;;;;;5033686;28;20025;-69
2023/05/05 09:55:59;;;;;;;6.75;2.70;;;21.20;99.90;;;;;;5030270;28;20036;-68
2023/05/05 09:58:26;;;;;;;5.35;2.92;;;21.30;99.90;;;;;;5029587;28;20033;-69
2023/05/05 10:00:53;;;;;;;6.53;4.18;;;21.30;99.90;;;;;;5026083;28;20161;-68
2023/05/05 10:03:19;;;;;;;4.53;2.92;;;21.30;99.90;;;;;;5030144;28;20029;-69
2023/05/05 10:05:54;;;;;;;6.88;2.70;;;21.20;99.90;;;;;;5031562;28;20025;-68
2023/05/05 10:08:24;;;;;;;6.00;3.10;;;21.50;99.90;;;;;;5030462;28;20034;-68
2023/05/05 10:11:03;;;;;;;6.32;3.05;;;21.50;99.90;;;;;;5034375;28;20035;-68
2023/05/05 10:13:29;;;;;;;5.82;2.65;;;21.50;99.90;;;;;;5037505;28;20120;-69
2023/05/05 10:15:56;;;;;;;10.57;2.50;;;21.60;99.90;;;;;;5031970;28;20044;-68
2023/05/05 10:18:27;;;;;;;5.53;2.45;;;21.70;99.90;;;;;;5032731;28;20045;-68
2023/05/05 10:20:55;;;;;;;;;;;21.70;99.90;;;;;;5032686;28;20018;-68
2023/05/05 10:23:23;;;;;;;5.15;2.95;;;21.80;99.90;;;;;;5030024;28;19912;-68
2023/05/05 10:25:59;;;;;;;5.65;2.95;;;22.00;99.90;;;;;;5035830;28;20025;-68
2023/05/05 10:28:36;;;;;;;6.07;2.80;;;21.80;99.90;;;;;;5031025;28;20025;-68
2023/05/05 10:31:04;;;;;;;5.60;3.00;;;21.90;99.90;;;;;;5034953;28;20036;-69
2023/05/05 10:33:51;;;;;;;6.10;2.83;;;21.80;99.90;;;;;;5034419;28;20025;-69
2023/05/05 10:36:19;;;;;;;9.25;2.67;;;21.80;99.90;;;;;;5030387;28;20072;-68
2023/05/05 10:38:45;;;;;;;6.80;2.65;;;21.70;99.90;;;;;;5034851;28;20486;-68
2023/05/05 10:41:13;;;;;;;10.57;3.13;;;21.80;99.90;;;;;;5031268;28;20033;-69
2023/05/05 10:43:40;;;;;;;4.32;2.60;;;22.10;99.90;;;;;;5032371;28;20021;-68
2023/05/05 10:46:06;;;;;;;6.43;2.75;;;22.20;99.90;;;;;;5032936;28;20735;-69
2023/05/05 10:48:38;;;;;;;5.57;2.70;;;22.30;99.90;;;;;;5032439;28;20025;-68
2023/05/05 10:51:21;;;;;;;5.90;2.17;;;22.30;99.90;;;;;;5028407;28;20049;-68
2023/05/05 10:54:01;;;;;;;4.00;2.42;;;22.20;99.90;;;;;;5034150;28;20021;-68
2023/05/05 10:56:31;;;;;;;4.70;2.38;;;22.20;99.90;;;;;;5032300;28;20033;-69
2023/05/05 10:58:57;;;;;;;4.07;3.10;;;22.30;99.90;;;;;;5035514;28;20036;-68
2023/05/05 11:01:33;;;;;;;6.88;2.78;;;22.40;99.90;;;;;;5033451;28;20030;-68
2023/05/05 11:04:21;;;;;;;5.57;2.55;;;22.30;99.90;;;;;;5029581;28;20093;-68
2023/05/05 11:07:08;;;;;;;7.60;3.55;;;22.40;99.90;;;;;;5034167;28;20489;-69
2023/05/05 11:09:41;;;;;;;4.93;2.80;;;22.70;99.90;;;;;;5030985;28;20037;-69
2023/05/05 11:12:08;;;;;;;5.18;2.63;;;22.60;99.90;;;;;;5027480;28;20095;-68
2023/05/05 11:14:34;;;;;;;6.75;3.00;;;22.60;99.90;;;;;;5030933;28;20025;-68
2023/05/05 11:17:00;;;;;;;5.88;2.88;;;22.80;99.90;;;;;;5031642;28;20038;-68
2023/05/05 11:19:41;;;;;;;4.80;2.45;;;22.80;99.90;;;;;;5033494;28;20025;-68
2023/05/05 11:22:07;;;;;;;5.88;2.60;;;23.10;99.90;;;;;;5030718;28;20502;-68
2023/05/05 11:24:32;;;;;;;4.15;2.50;;;23.40;99.90;;;;;;5029906;28;21101;-68
2023/05/05 11:26:58;;;;;;;4.90;2.35;;;23.30;99.90;;;;;;5032186;28;20033;-68
2023/05/05 11:29:24;;;;;;;5.60;2.78;;;23.50;99.90;;;;;;5029441;28;20025;-68
2023/05/05 11:32:09;;;;;;;3.17;2.13;;;23.20;99.90;;;;;;5031260;28;20049;-69
2023/05/05 11:34:46;;;;;;;4.25;2.47;;;23.10;99.90;;;;;;5032576;28;20571;-69
2023/05/05 11:37:12;;;;;;;7.22;3.15;;;23.20;99.90;;;;;;5033281;28;20034;-68
2023/05/05 11:39:46;;;;;;;5.95;2.47;;;23.10;99.90;;;;;;5033489;28;20060;-69
2023/05/05 11:42:24;;;;;;;3.75;2.28;;;23.00;99.90;;;;;;5031681;28;20126;-69
2023/05/05 11:44:50;;;;;;;5.38;2.78;;;22.80;99.90;;;;;;5033077;28;20030;-69
2023/05/05 11:47:15;;;;;;;5.32;2.55;;;22.80;99.90;;;;;;5035283;28;20031;-69
2023/05/05 11:49:41;;;;;;;9.05;3.20;;;22.90;99.90;;;;;;5033318;28;20040;-69
2023/05/05 11:52:08;;;;;;;4.85;2.53;;;22.90;99.90;;;;;;5032067;28;20073;-69
2023/05/05 11:54:36;;;;;;;6.55;2.45;;;23.00;99.90;;;;;;5033910;28;20025;-69
2023/05/05 11:57:04;;;;;;;7.30;2.75;;;23.10;99.90;;;;;;5036308;28;20041;-69
2023/05/05 11:59:36;;;;;;;4.85;2.60;;;23.20;99.90;;;;;;5034862;28;20020;-69
2023/05/05 12:02:02;;;;;;;5.85;2.65;;;23.10;99.90;;;;;;5034487;28;20030;-69
2023/05/05 12:04:30;;;;;;;5.10;2.50;;;23.30;99.90;;;;;;5038714;28;20367;-69
2023/05/05 12:06:57;;;;;;;6.07;2.55;;;23.40;99.90;;;;;;5037933;28;20018;-69
2023/05/05 12:09:23;;;;;;;5.05;2.55;;;23.50;99.90;;;;;;5037644;28;20026;-69
2023/05/05 12:11:50;;;;;;;4.40;2.38;;;23.60;99.90;;;;;;5037616;28;20022;-69
2023/05/05 12:14:15;;;;;;;4.60;2.42;;;23.50;99.90;;;;;;5038095;28;20126;-69
2023/05/05 12:16:54;;;;;;;5.32;2.40;;;23.50;99.90;;;;;;5038077;28;20108;-69
2023/05/05 12:19:19;;;;;;;5.38;2.40;;;23.60;99.90;;;;;;5037902;28;20084;-69
2023/05/05 12:21:45;;;;;;;4.65;2.95;;;23.40;99.90;;;;;;5036682;28;20036;-69
2023/05/05 12:24:14;;;;;;;7.78;3.22;;;23.50;99.90;;;;;;5036859;28;20104;-69
2023/05/05 12:26:40;;;;;;;5.07;2.65;;;23.20;99.90;;;;;;5036720;28;20026;-69
2023/05/05 12:29:06;;;;;;;7.20;2.67;;;23.20;99.90;;;;;;5030080;28;20120;-70
2023/05/05 12:31:38;;;;;;;5.28;2.33;;;23.30;99.90;;;;;;5033668;28;20062;-70
2023/05/05 12:34:06;;;;;;;3.53;2.70;;;23.40;99.90;;;;;;5032927;28;20021;-70
2023/05/05 12:36:33;;;;;;;5.65;2.42;;;23.50;99.90;;;;;;5035059;28;20022;-70
2023/05/05 12:38:59;;;;;;;9.23;3.03;;;23.70;99.90;;;;;;5036374;28;20017;-70
2023/05/05 12:41:24;;;;;;;8.13;2.60;;;23.90;99.90;;;;;;5035970;28;20030;-70
2023/05/05 12:43:55;;;;;;;8.32;2.67;;;23.70;99.90;;;;;;5037403;28;20620;-69
2023/05/05 12:46:22;;;;;;;5.97;2.50;;;23.40;99.90;;;;;;5037552;28;20374;-70
2023/05/05 12:48:59;;;;;;;7.53;3.00;;;23.40;99.90;;;;;;5037404;28;20083;-70
2023/05/05 12:51:25;;;;;;;7.80;2.33;;;23.60;99.90;;;;;;5033719;28;20029;-70